createdAt,value
2023-03-06T00:00:06.380Z,958.4700
2023-03-06T00:01:06.517Z,958.4700
2023-03-06T00:02:08.792Z,958.4300
2023-03-06T00:03:11.151Z,958.4300
2023-03-06T00:04:13.402Z,958.4300
2023-03-06T00:05:15.641Z,958.4100
2023-03-06T00:06:15.816Z,958.4100
2023-03-06T00:07:18.073Z,958.4300
2023-03-06T00:08:18.372Z,958.4100
2023-03-06T00:09:20.553Z,958.4100
2023-03-06T00:10:22.837Z,958.4300
2023-03-06T00:11:25.152Z,958.4300
2023-03-06T00:12:27.452Z,958.4100
2023-03-06T00:13:29.945Z,958.4100
2023-03-06T00:14:29.927Z,958.4100
2023-03-06T00:15:32.205Z,958.4100
2023-03-06T00:16:34.544Z,958.3900
2023-03-06T00:17:36.748Z,958.3900
2023-03-06T00:18:39.053Z,958.3700
2023-03-06T00:19:41.242Z,958.3700
2023-03-06T00:20:43.507Z,958.3500
2023-03-06T00:21:45.758Z,958.3100
2023-03-06T00:22:45.858Z,958.3100
2023-03-06T00:23:48.185Z,958.2700
2023-03-06T00:24:50.345Z,958.2700
2023-03-06T00:25:52.604Z,958.2700
2023-03-06T00:26:54.844Z,958.2700
2023-03-06T00:27:57.079Z,958.2900
2023-03-06T00:28:59.440Z,958.2500
2023-03-06T00:30:01.560Z,958.2500
2023-03-06T00:31:01.685Z,958.2500
2023-03-06T00:32:03.957Z,958.1800
2023-03-06T00:33:06.174Z,958.1800
2023-03-06T00:34:08.582Z,958.1800
2023-03-06T00:35:10.776Z,958.1800
2023-03-06T00:36:13.063Z,958.1800
2023-03-06T00:37:15.366Z,958.1800
2023-03-06T00:38:15.516Z,958.1600
2023-03-06T00:39:17.928Z,958.1600
2023-03-06T00:40:20.086Z,958.1000
2023-03-06T00:41:22.346Z,958.0800
2023-03-06T00:42:24.662Z,958.0800
2023-03-06T00:43:26.972Z,958.1000
2023-03-06T00:44:29.274Z,958.0400
2023-03-06T00:45:29.342Z,958.0200
2023-03-06T00:46:31.628Z,958.0200
2023-03-06T00:47:33.905Z,958.0000
2023-03-06T00:48:36.166Z,958.0000
2023-03-06T00:49:38.566Z,957.9600
2023-03-06T00:50:40.647Z,958.0000
2023-03-06T00:51:42.913Z,957.9800
2023-03-06T00:52:45.175Z,957.9800
2023-03-06T00:53:45.272Z,957.9800
2023-03-06T00:54:47.567Z,958.0000
2023-03-06T00:55:49.727Z,958.0000
2023-03-06T00:56:51.968Z,957.9800
2023-03-06T00:57:54.251Z,957.9800
2023-03-06T00:58:56.514Z,957.9200
2023-03-06T00:59:58.816Z,957.9000
2023-03-06T01:01:01.062Z,957.9000
2023-03-06T01:02:03.441Z,957.8800
2023-03-06T01:03:03.395Z,957.8400
2023-03-06T01:04:05.665Z,957.8200
2023-03-06T01:05:08.005Z,957.8000
2023-03-06T01:06:10.216Z,957.8200
2023-03-06T01:07:12.484Z,957.7900
2023-03-06T01:08:14.689Z,957.7700
2023-03-06T01:09:16.933Z,957.7700
2023-03-06T01:10:17.158Z,957.7300
2023-03-06T01:11:17.300Z,957.7100
2023-03-06T01:12:21.370Z,957.7300
2023-03-06T01:13:21.959Z,957.7100
2023-03-06T01:14:24.294Z,957.6700
2023-03-06T01:15:26.658Z,957.6900
2023-03-06T01:16:26.877Z,957.6500
2023-03-06T01:17:29.140Z,957.5900
2023-03-06T01:18:31.463Z,957.5900
2023-03-06T01:19:33.788Z,957.5500
2023-03-06T01:20:36.277Z,957.4900
2023-03-06T01:21:38.466Z,957.4900
2023-03-06T01:22:40.799Z,957.4700
2023-03-06T01:23:43.121Z,957.4300
2023-03-06T01:24:45.425Z,957.4100
2023-03-06T01:25:47.744Z,957.3900
2023-03-06T01:26:47.889Z,957.3700
2023-03-06T01:27:50.180Z,957.3500
2023-03-06T01:28:52.497Z,957.3300
2023-03-06T01:29:54.807Z,957.3000
2023-03-06T01:30:57.201Z,957.3000
2023-03-06T01:31:59.580Z,957.2700
2023-03-06T01:32:59.569Z,957.2500
2023-03-06T01:34:01.729Z,957.2500
2023-03-06T01:35:03.944Z,957.2400
2023-03-06T01:36:06.306Z,957.2000
2023-03-06T01:37:08.448Z,957.2000
2023-03-06T01:38:10.705Z,957.2200
2023-03-06T01:39:12.936Z,957.2000
2023-03-06T01:40:15.129Z,957.1800
2023-03-06T01:41:17.411Z,957.1600
2023-03-06T01:42:19.579Z,957.1400
2023-03-06T01:43:21.853Z,957.1200
2023-03-06T01:44:24.110Z,957.1200
2023-03-06T01:45:33.090Z,957.0800
2023-03-06T01:46:35.247Z,957.0800
2023-03-06T01:47:37.301Z,957.0400
2023-03-06T01:48:39.459Z,957.0000
2023-03-06T01:49:41.660Z,957.0000
2023-03-06T01:50:43.809Z,957.0400
2023-03-06T01:51:46.127Z,957.0200
2023-03-06T01:52:48.157Z,957.0000
2023-03-06T01:53:50.354Z,957.0000
2023-03-06T01:54:52.553Z,957.0200
2023-03-06T01:55:54.719Z,957.0200
2023-03-06T01:56:56.932Z,957.0000
2023-03-06T01:57:59.127Z,956.9800
2023-03-06T01:59:01.313Z,956.9600
2023-03-06T02:00:03.534Z,956.9600
2023-03-06T02:01:05.886Z,956.9600
2023-03-06T02:02:08.097Z,956.9200
2023-03-06T02:03:10.203Z,956.9200
2023-03-06T02:04:12.408Z,956.9200
2023-03-06T02:05:14.616Z,956.9000
2023-03-06T02:06:14.734Z,956.9200
2023-03-06T02:07:17.074Z,956.9200
2023-03-06T02:08:19.205Z,956.9200
2023-03-06T02:09:21.464Z,956.8800
2023-03-06T02:10:23.708Z,956.9000
2023-03-06T02:11:25.963Z,956.9000
2023-03-06T02:12:28.260Z,956.9000
2023-03-06T02:13:30.374Z,956.9200
2023-03-06T02:14:32.599Z,956.9000
2023-03-06T02:15:34.793Z,956.9400
2023-03-06T02:16:37.103Z,956.9200
2023-03-06T02:17:39.205Z,956.8800
2023-03-06T02:18:39.226Z,956.8800
2023-03-06T02:19:41.390Z,956.8300
2023-03-06T02:20:43.605Z,956.7900
2023-03-06T02:21:45.731Z,956.6900
2023-03-06T02:22:48.046Z,956.6700
2023-03-06T02:23:50.074Z,956.6900
2023-03-06T02:24:52.233Z,956.6900
2023-03-06T02:25:54.427Z,956.7100
2023-03-06T02:26:56.568Z,956.6900
2023-03-06T02:27:58.869Z,956.6900
2023-03-06T02:29:00.981Z,956.6900
2023-03-06T02:30:03.197Z,956.6900
2023-03-06T02:31:05.503Z,956.6900
2023-03-06T02:32:07.669Z,956.6700
2023-03-06T02:33:09.884Z,956.6300
2023-03-06T02:34:12.047Z,956.5900
2023-03-06T02:35:14.279Z,956.5700
2023-03-06T02:36:16.441Z,956.5500
2023-03-06T02:37:18.691Z,956.5500
2023-03-06T02:38:18.879Z,956.5300
2023-03-06T02:39:20.973Z,956.5300
2023-03-06T02:40:23.211Z,956.5100
2023-03-06T02:41:25.434Z,956.5300
2023-03-06T02:42:27.651Z,956.4900
2023-03-06T02:43:29.946Z,956.5100
2023-03-06T02:44:32.142Z,956.4700
2023-03-06T02:45:34.417Z,956.4500
2023-03-06T02:46:36.697Z,956.4300
2023-03-06T02:47:38.975Z,956.4300
2023-03-06T02:48:39.121Z,956.4100
2023-03-06T02:49:41.389Z,956.4100
2023-03-06T02:50:43.650Z,956.4100
2023-03-06T02:51:45.873Z,956.4100
2023-03-06T02:52:48.133Z,956.3900
2023-03-06T02:53:50.556Z,956.3900
2023-03-06T02:54:52.675Z,956.3700
2023-03-06T02:55:52.874Z,956.3900
2023-03-06T02:56:55.164Z,956.4100
2023-03-06T02:57:57.486Z,956.3900
2023-03-06T02:58:59.807Z,956.4100
2023-03-06T03:00:02.092Z,956.3900
2023-03-06T03:01:04.394Z,956.4100
2023-03-06T03:02:04.570Z,956.4300
2023-03-06T03:03:06.860Z,956.4100
2023-03-06T03:04:09.342Z,956.4300
2023-03-06T03:05:11.472Z,956.4100
2023-03-06T03:06:13.764Z,956.4100
2023-03-06T03:07:16.074Z,956.4300
2023-03-06T03:08:18.378Z,956.4100
2023-03-06T03:09:18.569Z,956.3900
2023-03-06T03:10:20.842Z,956.3700
2023-03-06T03:11:23.155Z,956.3300
2023-03-06T03:12:25.418Z,956.3500
2023-03-06T03:13:27.751Z,956.3000
2023-03-06T03:14:30.127Z,956.3200
2023-03-06T03:15:32.478Z,956.3200
2023-03-06T03:16:32.411Z,956.3200
2023-03-06T03:17:34.737Z,956.2800
2023-03-06T03:18:37.037Z,956.3200
2023-03-06T03:19:39.412Z,956.3200
2023-03-06T03:20:41.603Z,956.2800
2023-03-06T03:21:43.899Z,956.3000
2023-03-06T03:22:46.304Z,956.3200
2023-03-06T03:23:48.455Z,956.3200
2023-03-06T03:24:50.806Z,956.3300
2023-03-06T03:25:53.120Z,956.3300
2023-03-06T03:26:55.386Z,956.3500
2023-03-06T03:27:57.753Z,956.3700
2023-03-06T03:28:57.955Z,956.3700
2023-03-06T03:30:00.401Z,956.3500
2023-03-06T03:31:02.668Z,956.3900
2023-03-06T03:32:05.050Z,956.3500
2023-03-06T03:33:07.271Z,956.3300
2023-03-06T03:34:09.589Z,956.3200
2023-03-06T03:35:09.901Z,956.2800
2023-03-06T03:36:12.123Z,956.2800
2023-03-06T03:37:14.443Z,956.2800
2023-03-06T03:38:16.784Z,956.2600
2023-03-06T03:39:19.110Z,956.2600
2023-03-06T03:40:19.404Z,956.2800
2023-03-06T03:41:21.568Z,956.2800
2023-03-06T03:42:23.908Z,956.2600
2023-03-06T03:43:26.239Z,956.2600
2023-03-06T03:44:28.531Z,956.2600
2023-03-06T03:45:30.856Z,956.2800
2023-03-06T03:47:11.901Z,956.2600
2023-03-06T03:48:14.094Z,956.2600
2023-03-06T03:49:16.309Z,956.2600
2023-03-06T03:50:16.450Z,956.2600
2023-03-06T03:51:18.771Z,956.2600
2023-03-06T03:52:21.079Z,956.2400
2023-03-06T03:53:23.305Z,956.2400
2023-03-06T03:54:25.589Z,956.2400
2023-03-06T03:55:27.880Z,956.2400
2023-03-06T03:56:30.215Z,956.2400
2023-03-06T03:57:30.251Z,956.2400
2023-03-06T03:58:32.557Z,956.2000
2023-03-06T03:59:34.864Z,956.1800
2023-03-06T04:00:37.192Z,956.1800
2023-03-06T04:01:39.950Z,956.1600
2023-03-06T04:02:41.807Z,956.2200
2023-03-06T04:03:44.084Z,956.2400
2023-03-06T04:04:44.253Z,956.2400
2023-03-06T04:05:46.516Z,956.2000
2023-03-06T04:06:48.836Z,956.2200
2023-03-06T04:07:51.090Z,956.1800
2023-03-06T04:08:53.403Z,956.2000
2023-03-06T04:09:55.688Z,956.2000
2023-03-06T04:10:57.996Z,956.1800
2023-03-06T04:11:58.195Z,956.1600
2023-03-06T04:13:00.396Z,956.1200
2023-03-06T04:14:02.688Z,956.1400
2023-03-06T04:15:04.926Z,956.1200
2023-03-06T04:16:07.209Z,956.1200
2023-03-06T04:17:09.619Z,956.1200
2023-03-06T04:18:11.838Z,956.0800
2023-03-06T04:19:12.012Z,956.0800
2023-03-06T04:20:14.306Z,956.1000
2023-03-06T04:21:16.598Z,956.1000
2023-03-06T04:22:18.892Z,956.1400
2023-03-06T04:23:21.184Z,956.1200
2023-03-06T04:24:23.480Z,956.1200
2023-03-06T04:25:23.638Z,956.1000
2023-03-06T04:26:25.955Z,956.0800
2023-03-06T04:27:28.201Z,956.0600
2023-03-06T04:28:30.428Z,956.0600
2023-03-06T04:29:32.708Z,956.0600
2023-03-06T04:30:34.970Z,956.0800
2023-03-06T04:31:37.315Z,956.0400
2023-03-06T04:32:39.640Z,956.0600
2023-03-06T04:33:39.628Z,956.0200
2023-03-06T04:34:41.876Z,956.0000
2023-03-06T04:35:44.159Z,955.9800
2023-03-06T04:36:46.395Z,955.9800
2023-03-06T04:37:48.725Z,955.9800
2023-03-06T04:38:50.923Z,955.9600
2023-03-06T04:39:53.143Z,955.9400
2023-03-06T04:40:55.404Z,955.9200
2023-03-06T04:41:57.714Z,955.9200
2023-03-06T04:42:57.900Z,955.8800
2023-03-06T04:44:00.070Z,955.8800
2023-03-06T04:45:02.354Z,955.8600
2023-03-06T04:46:04.710Z,955.8800
2023-03-06T04:47:06.925Z,955.8500
2023-03-06T04:48:09.217Z,955.8600
2023-03-06T04:49:11.511Z,955.8300
2023-03-06T04:50:11.682Z,955.8300
2023-03-06T04:51:14.001Z,955.8300
2023-03-06T04:52:16.303Z,955.8300
2023-03-06T04:53:18.642Z,955.8600
2023-03-06T04:54:20.964Z,955.9000
2023-03-06T04:55:21.159Z,955.9200
2023-03-06T04:56:23.432Z,955.9200
2023-03-06T04:57:25.711Z,955.9200
2023-03-06T04:58:28.134Z,955.9200
2023-03-06T04:59:30.312Z,955.9200
2023-03-06T05:00:32.594Z,955.9600
2023-03-06T05:01:34.860Z,955.9600
2023-03-06T05:02:35.035Z,955.9800
2023-03-06T05:03:37.474Z,955.9600
2023-03-06T05:04:39.664Z,955.9200
2023-03-06T05:05:41.928Z,955.9200
2023-03-06T05:06:44.201Z,955.9200
2023-03-06T05:07:46.442Z,955.9000
2023-03-06T05:08:48.864Z,955.8800
2023-03-06T05:10:29.782Z,955.9200
2023-03-06T05:11:31.954Z,955.9400
2023-03-06T05:12:34.194Z,955.9400
2023-03-06T05:13:36.433Z,955.9400
2023-03-06T05:14:36.689Z,955.9400
2023-03-06T05:15:38.828Z,955.9400
2023-03-06T05:16:41.132Z,955.9200
2023-03-06T05:17:43.346Z,955.9600
2023-03-06T05:18:45.606Z,955.9400
2023-03-06T05:19:47.898Z,955.9400
2023-03-06T05:20:50.153Z,955.9200
2023-03-06T05:21:50.282Z,955.9600
2023-03-06T05:22:52.506Z,955.9400
2023-03-06T05:23:54.737Z,955.9400
2023-03-06T05:24:57.061Z,955.9400
2023-03-06T05:25:59.207Z,955.9400
2023-03-06T05:27:01.411Z,955.9000
2023-03-06T05:28:03.685Z,955.8800
2023-03-06T05:29:05.906Z,955.9000
2023-03-06T05:30:08.255Z,955.8800
2023-03-06T05:31:10.399Z,955.9000
2023-03-06T05:32:12.809Z,955.8600
2023-03-06T05:33:12.718Z,955.8600
2023-03-06T05:34:14.988Z,955.8600
2023-03-06T05:35:17.340Z,955.9200
2023-03-06T05:36:19.509Z,955.9000
2023-03-06T05:37:21.761Z,955.9200
2023-03-06T05:38:24.024Z,955.9400
2023-03-06T05:39:26.282Z,955.9600
2023-03-06T05:40:28.583Z,956.0000
2023-03-06T05:41:30.815Z,956.0000
2023-03-06T05:42:30.954Z,956.0400
2023-03-06T05:43:33.226Z,956.0200
2023-03-06T05:44:35.504Z,956.0000
2023-03-06T05:45:37.791Z,956.0000
2023-03-06T05:46:40.021Z,955.9800
2023-03-06T05:47:42.282Z,956.0000
2023-03-06T05:48:46.776Z,956.0000
2023-03-06T05:49:46.789Z,956.0200
2023-03-06T05:50:47.008Z,956.0600
2023-03-06T05:51:49.158Z,956.1200
2023-03-06T05:52:51.427Z,956.1000
2023-03-06T05:53:53.673Z,956.1400
2023-03-06T05:54:55.917Z,956.1600
2023-03-06T05:55:58.197Z,956.1400
2023-03-06T05:57:00.441Z,956.1200
2023-03-06T05:58:02.678Z,956.1000
2023-03-06T05:59:04.947Z,956.1000
2023-03-06T06:00:04.998Z,956.1000
2023-03-06T06:01:07.274Z,956.1000
2023-03-06T06:02:09.528Z,956.1200
2023-03-06T06:03:11.744Z,956.0800
2023-03-06T06:04:13.993Z,956.0600
2023-03-06T06:05:16.296Z,956.0200
2023-03-06T06:06:18.678Z,955.9800
2023-03-06T06:07:20.878Z,956.0000
2023-03-06T06:08:21.026Z,956.0000
2023-03-06T06:09:23.334Z,956.0000
2023-03-06T06:10:25.648Z,956.0400
2023-03-06T06:11:28.002Z,956.0800
2023-03-06T06:12:30.273Z,956.1000
2023-03-06T06:13:32.581Z,956.1400
2023-03-06T06:14:34.891Z,956.1600
2023-03-06T06:15:35.073Z,956.2000
2023-03-06T06:16:37.422Z,956.2000
2023-03-06T06:17:39.656Z,956.2200
2023-03-06T06:18:41.934Z,956.2200
2023-03-06T06:19:44.190Z,956.2200
2023-03-06T06:20:46.474Z,956.2200
2023-03-06T06:21:46.746Z,956.2400
2023-03-06T06:22:48.976Z,956.2400
2023-03-06T06:23:51.328Z,956.2600
2023-03-06T06:24:53.672Z,956.2400
2023-03-06T06:25:56.029Z,956.2600
2023-03-06T06:26:56.245Z,956.2600
2023-03-06T06:27:58.576Z,956.2400
2023-03-06T06:29:00.900Z,956.2600
2023-03-06T06:30:03.301Z,956.2200
2023-03-06T06:31:05.634Z,956.2000
2023-03-06T06:32:05.767Z,956.2200
2023-03-06T06:33:08.021Z,956.2000
2023-03-06T06:34:10.348Z,956.2400
2023-03-06T06:35:12.649Z,956.2400
2023-03-06T06:36:57.899Z,956.2800
2023-03-06T06:38:00.025Z,956.2600
2023-03-06T06:39:02.187Z,956.2800
2023-03-06T06:40:04.402Z,956.3000
2023-03-06T06:41:33.461Z,956.3200
2023-03-06T06:42:28.609Z,956.3300
2023-03-06T06:43:09.022Z,956.3700
2023-03-06T06:44:11.128Z,956.3900
2023-03-06T06:45:13.394Z,956.4300
2023-03-06T06:46:49.939Z,956.4100
2023-03-06T06:47:22.889Z,956.4100
2023-03-06T06:48:20.208Z,956.4100
2023-03-06T06:49:22.285Z,956.3700
2023-03-06T06:50:24.496Z,956.3900
2023-03-06T06:51:26.741Z,956.4100
2023-03-06T06:52:29.024Z,956.3900
2023-03-06T06:53:29.165Z,956.4100
2023-03-06T06:54:31.477Z,956.4300
2023-03-06T06:55:33.802Z,956.4700
2023-03-06T06:56:36.109Z,956.4500
2023-03-06T06:57:38.416Z,956.4700
2023-03-06T06:58:40.865Z,956.4900
2023-03-06T06:59:40.916Z,956.4700
2023-03-06T07:00:43.230Z,956.4900
2023-03-06T07:01:43.546Z,956.4700
2023-03-06T07:02:45.713Z,956.4900
2023-03-06T07:03:48.188Z,956.4500
2023-03-06T07:05:03.081Z,956.4300
2023-03-06T07:05:50.509Z,956.4500
2023-03-06T07:06:52.797Z,956.4100
2023-03-06T07:07:55.100Z,956.3900
2023-03-06T07:08:57.571Z,956.4300
2023-03-06T07:09:59.691Z,956.4500
2023-03-06T07:11:02.005Z,956.4700
2023-03-06T07:12:02.112Z,956.4700
2023-03-06T07:13:04.323Z,956.5300
2023-03-06T07:14:06.653Z,956.5500
2023-03-06T07:15:08.840Z,956.5700
2023-03-06T07:16:11.207Z,956.5500
2023-03-06T07:17:13.417Z,956.5500
2023-03-06T07:18:15.733Z,956.5300
2023-03-06T07:19:18.142Z,956.5100
2023-03-06T07:20:18.113Z,956.5100
2023-03-06T07:21:20.422Z,956.4900
2023-03-06T07:22:22.651Z,956.5100
2023-03-06T07:23:24.895Z,956.4700
2023-03-06T07:24:27.200Z,956.4700
2023-03-06T07:25:29.483Z,956.4900
2023-03-06T07:26:34.505Z,956.4500
2023-03-06T07:27:32.038Z,956.4700
2023-03-06T07:28:46.292Z,956.4300
2023-03-06T07:29:36.732Z,956.4700
2023-03-06T07:30:38.955Z,956.4700
2023-03-06T07:31:41.254Z,956.4700
2023-03-06T07:32:43.597Z,956.4500
2023-03-06T07:33:43.680Z,956.4300
2023-03-06T07:34:46.065Z,956.4300
2023-03-06T07:35:48.357Z,956.4700
2023-03-06T07:36:50.721Z,956.4700
2023-03-06T07:37:53.038Z,956.4500
2023-03-06T07:38:53.241Z,956.4500
2023-03-06T07:39:55.699Z,956.4300
2023-03-06T07:40:57.953Z,956.4300
2023-03-06T07:42:00.435Z,956.4300
2023-03-06T07:43:17.150Z,956.3900
2023-03-06T07:44:02.894Z,956.4100
2023-03-06T07:45:05.376Z,956.4300
2023-03-06T07:46:07.728Z,956.4100
2023-03-06T07:47:07.868Z,956.4300
2023-03-06T07:48:10.216Z,956.4500
2023-03-06T07:49:12.576Z,956.4700
2023-03-06T07:50:15.054Z,956.4700
2023-03-06T07:51:15.162Z,956.4700
2023-03-06T07:52:17.510Z,956.4900
2023-03-06T07:53:19.835Z,956.5300
2023-03-06T07:54:22.204Z,956.5100
2023-03-06T07:55:22.408Z,956.5100
2023-03-06T07:56:24.744Z,956.5300
2023-03-06T07:57:27.015Z,956.5300
2023-03-06T07:58:28.176Z,956.5300
2023-03-06T07:59:29.439Z,956.5700
2023-03-06T08:00:31.797Z,956.6100
2023-03-06T08:01:33.928Z,956.6300
2023-03-06T08:02:36.255Z,956.6300
2023-03-06T08:03:38.505Z,956.6500
2023-03-06T08:04:40.758Z,956.6500
2023-03-06T08:05:40.996Z,956.6300
2023-03-06T08:06:43.152Z,956.6300
2023-03-06T08:07:45.444Z,956.6300
2023-03-06T08:08:47.760Z,956.6500
2023-03-06T08:09:50.039Z,956.6500
2023-03-06T08:10:52.462Z,956.6900
2023-03-06T08:11:54.578Z,956.6900
2023-03-06T08:12:54.704Z,956.6700
2023-03-06T08:13:56.939Z,956.7100
2023-03-06T08:14:59.210Z,956.7900
2023-03-06T08:16:01.664Z,956.7100
2023-03-06T08:17:03.805Z,956.6900
2023-03-06T08:18:06.137Z,956.7900
2023-03-06T08:19:08.375Z,956.7900
2023-03-06T08:20:10.620Z,956.8100
2023-03-06T08:21:10.856Z,956.8300
2023-03-06T08:22:12.985Z,956.8500
2023-03-06T08:23:15.270Z,956.8100
2023-03-06T08:24:17.551Z,956.8300
2023-03-06T08:25:19.810Z,956.8500
2023-03-06T08:26:22.124Z,956.8300
2023-03-06T08:27:24.397Z,956.8500
2023-03-06T08:28:26.605Z,956.8300
2023-03-06T08:29:29.837Z,956.8500
2023-03-06T08:30:29.007Z,956.8500
2023-03-06T08:31:31.442Z,956.8600
2023-03-06T08:32:33.671Z,956.8800
2023-03-06T08:33:35.859Z,956.9000
2023-03-06T08:34:38.123Z,956.9200
2023-03-06T08:35:40.490Z,956.9600
2023-03-06T08:36:40.561Z,956.9600
2023-03-06T08:37:42.893Z,956.9800
2023-03-06T08:38:45.103Z,957.0000
2023-03-06T08:39:47.359Z,956.9800
2023-03-06T08:40:49.566Z,957.0000
2023-03-06T08:41:51.902Z,957.0200
2023-03-06T08:42:54.056Z,957.0200
2023-03-06T08:43:38.252Z,957.0400
2023-03-06T08:44:39.347Z,957.0400
2023-03-06T08:45:41.568Z,957.0200
2023-03-06T08:46:43.820Z,957.0400
2023-03-06T08:47:46.196Z,957.0600
2023-03-06T08:48:48.408Z,957.0600
2023-03-06T08:49:50.630Z,957.0600
2023-03-06T08:50:52.948Z,957.0600
2023-03-06T08:51:53.131Z,957.0800
2023-03-06T08:52:55.559Z,957.0600
2023-03-06T08:53:57.819Z,957.0400
2023-03-06T08:55:00.138Z,957.0200
2023-03-06T08:56:02.485Z,957.0000
2023-03-06T08:57:02.661Z,957.0000
2023-03-06T08:58:05.093Z,956.9800
2023-03-06T08:59:07.326Z,957.0400
2023-03-06T09:00:09.667Z,956.9800
2023-03-06T09:01:12.036Z,957.0000
2023-03-06T09:02:12.206Z,957.0000
2023-03-06T09:03:14.580Z,957.0200
2023-03-06T09:04:16.925Z,957.0200
2023-03-06T09:05:19.086Z,956.9800
2023-03-06T09:06:21.391Z,957.0000
2023-03-06T09:07:23.665Z,957.0400
2023-03-06T09:08:25.975Z,957.0000
2023-03-06T09:09:28.101Z,956.9800
2023-03-06T09:10:28.265Z,957.0000
2023-03-06T09:11:30.478Z,957.0000
2023-03-06T09:12:47.389Z,957.0200
2023-03-06T09:13:35.097Z,957.0000
2023-03-06T09:14:37.264Z,957.0600
2023-03-06T09:15:39.510Z,957.0400
2023-03-06T09:16:41.922Z,957.0800
2023-03-06T09:17:44.143Z,957.1000
2023-03-06T09:18:44.243Z,957.1200
2023-03-06T09:19:46.402Z,957.1200
2023-03-06T09:20:48.683Z,957.1200
2023-03-06T09:21:50.961Z,957.1400
2023-03-06T09:22:53.250Z,957.1400
2023-03-06T09:23:55.615Z,957.1600
2023-03-06T09:24:57.764Z,957.1400
2023-03-06T09:26:00.047Z,957.1400
2023-03-06T09:27:00.234Z,957.1200
2023-03-06T09:28:11.429Z,957.1200
2023-03-06T09:29:04.820Z,957.1000
2023-03-06T09:30:07.081Z,957.0800
2023-03-06T09:31:09.401Z,957.0600
2023-03-06T09:32:12.237Z,957.0800
2023-03-06T09:33:13.924Z,957.0800
2023-03-06T09:34:14.188Z,957.1400
2023-03-06T09:35:16.360Z,957.1000
2023-03-06T09:36:18.584Z,957.1000
2023-03-06T09:37:20.845Z,957.1400
2023-03-06T09:38:23.122Z,957.1000
2023-03-06T09:39:25.552Z,957.1200
2023-03-06T09:40:27.722Z,957.1000
2023-03-06T09:41:29.968Z,957.0800
2023-03-06T09:42:30.097Z,957.0600
2023-03-06T09:43:32.358Z,957.1200
2023-03-06T09:44:34.714Z,957.1400
2023-03-06T09:45:36.857Z,957.1000
2023-03-06T09:46:39.141Z,957.1000
2023-03-06T09:47:41.398Z,957.1000
2023-03-06T09:48:43.675Z,957.1000
2023-03-06T09:49:46.060Z,957.1000
2023-03-06T09:50:46.137Z,957.0600
2023-03-06T09:51:48.428Z,957.0600
2023-03-06T09:52:50.662Z,957.0600
2023-03-06T09:53:52.951Z,957.0600
2023-03-06T09:54:55.348Z,957.0200
2023-03-06T09:55:57.498Z,957.0600
2023-03-06T09:56:59.781Z,957.0400
2023-03-06T09:57:59.936Z,957.0400
2023-03-06T09:59:02.187Z,957.0600
2023-03-06T10:00:04.768Z,957.0400
2023-03-06T10:01:06.764Z,957.0400
2023-03-06T10:02:09.257Z,957.0000
2023-03-06T10:03:11.544Z,957.0000
2023-03-06T10:04:13.628Z,957.0600
2023-03-06T10:05:13.883Z,957.0000
2023-03-06T10:07:35.631Z,956.9600
2023-03-06T10:08:37.802Z,956.9800
2023-03-06T10:09:40.053Z,956.9600
2023-03-06T10:10:42.418Z,956.9200
2023-03-06T10:11:44.712Z,956.8500
2023-03-06T10:12:44.730Z,956.8800
2023-03-06T10:13:47.022Z,956.8800
2023-03-06T10:14:49.484Z,956.8600
2023-03-06T10:15:51.721Z,956.8800
2023-03-06T10:16:53.801Z,956.8600
2023-03-06T10:17:56.081Z,956.9000
2023-03-06T10:18:58.340Z,956.9200
2023-03-06T10:20:00.634Z,956.9200
2023-03-06T10:21:13.410Z,956.9000
2023-03-06T10:22:03.050Z,956.9200
2023-03-06T10:23:05.557Z,956.9200
2023-03-06T10:24:07.539Z,956.9000
2023-03-06T10:25:09.749Z,956.9000
2023-03-06T10:26:12.183Z,956.9200
2023-03-06T10:27:14.351Z,956.9000
2023-03-06T10:28:16.572Z,956.9200
2023-03-06T10:29:18.767Z,956.9400
2023-03-06T10:30:18.895Z,956.9400
2023-03-06T10:31:21.229Z,956.9600
2023-03-06T10:32:23.462Z,956.9400
2023-03-06T10:33:25.692Z,956.9400
2023-03-06T10:34:26.839Z,956.9400
2023-03-06T10:35:30.654Z,956.9400
2023-03-06T10:36:30.383Z,956.9200
2023-03-06T10:37:32.725Z,956.9200
2023-03-06T10:38:34.941Z,956.9200
2023-03-06T10:39:37.152Z,956.8800
2023-03-06T10:40:38.285Z,956.9200
2023-03-06T10:41:40.545Z,956.9200
2023-03-06T10:42:42.759Z,956.9200
2023-03-06T10:43:44.997Z,956.8800
2023-03-06T10:44:47.281Z,956.9000
2023-03-06T10:45:49.891Z,956.8600
2023-03-06T10:46:51.876Z,956.8800
2023-03-06T10:47:51.975Z,956.9000
2023-03-06T10:48:54.265Z,956.8800
2023-03-06T10:49:56.552Z,956.8600
2023-03-06T10:51:01.101Z,956.8600
2023-03-06T10:51:59.000Z,956.8500
2023-03-06T10:53:01.188Z,956.8800
2023-03-06T10:54:03.502Z,956.8600
2023-03-06T10:55:05.790Z,956.8800
2023-03-06T10:56:05.882Z,956.9000
2023-03-06T10:57:08.144Z,956.8600
2023-03-06T10:58:10.343Z,956.8600
2023-03-06T10:59:12.579Z,956.8300
2023-03-06T11:00:14.804Z,956.8100
2023-03-06T11:01:17.128Z,956.8600
2023-03-06T11:02:19.348Z,956.8300
2023-03-06T11:03:21.549Z,956.8300
2023-03-06T11:04:23.834Z,956.8600
2023-03-06T11:05:26.044Z,956.8100
2023-03-06T11:06:28.300Z,956.8500
2023-03-06T11:07:30.658Z,956.9200
2023-03-06T11:08:30.648Z,956.8800
2023-03-06T11:09:32.973Z,956.8800
2023-03-06T11:10:35.156Z,956.8500
2023-03-06T11:11:38.198Z,956.8800
2023-03-06T11:12:37.604Z,956.9000
2023-03-06T11:13:39.877Z,956.8600
2023-03-06T11:14:42.185Z,956.8600
2023-03-06T11:15:44.538Z,956.8500
2023-03-06T11:16:44.655Z,956.8500
2023-03-06T11:17:46.977Z,956.8500
2023-03-06T11:18:49.231Z,956.8600
2023-03-06T11:19:51.545Z,956.8500
2023-03-06T11:20:53.807Z,956.8500
2023-03-06T11:23:17.839Z,956.7900
2023-03-06T11:24:19.978Z,956.8100
2023-03-06T11:25:22.222Z,956.8100
2023-03-06T11:26:24.443Z,956.7900
2023-03-06T11:27:24.548Z,956.7100
2023-03-06T11:28:26.925Z,956.6900
2023-03-06T11:29:29.631Z,956.6900
2023-03-06T11:30:31.314Z,956.6900
2023-03-06T11:31:33.630Z,956.6900
2023-03-06T11:32:35.794Z,956.6900
2023-03-06T11:33:38.106Z,956.7100
2023-03-06T11:34:40.198Z,956.6700
2023-03-06T11:35:42.485Z,956.6700
2023-03-06T11:36:44.677Z,956.6300
2023-03-06T11:37:46.912Z,956.6300
2023-03-06T11:38:47.039Z,956.6300
2023-03-06T11:39:49.245Z,956.5900
2023-03-06T11:40:51.676Z,956.6100
2023-03-06T11:41:53.729Z,956.5900
2023-03-06T11:42:55.982Z,956.5700
2023-03-06T11:43:58.366Z,956.5500
2023-03-06T11:45:02.905Z,956.5300
2023-03-06T11:46:02.845Z,956.5100
2023-03-06T11:47:03.029Z,956.5300
2023-03-06T11:48:05.252Z,956.4900
2023-03-06T11:49:07.658Z,956.5500
2023-03-06T11:50:09.846Z,956.4700
2023-03-06T11:51:12.152Z,956.5100
2023-03-06T11:52:14.459Z,956.4900
2023-03-06T11:53:16.768Z,956.5100
2023-03-06T11:54:19.041Z,956.4700
2023-03-06T11:55:19.120Z,956.4300
2023-03-06T11:56:19.299Z,956.4300
2023-03-06T11:57:21.612Z,956.4500
2023-03-06T11:58:23.909Z,956.4500
2023-03-06T11:59:26.215Z,956.4300
2023-03-06T12:00:28.499Z,956.3900
2023-03-06T12:01:28.670Z,956.3700
2023-03-06T12:02:30.930Z,956.4300
2023-03-06T12:03:33.214Z,956.3700
2023-03-06T12:04:35.485Z,956.4100
2023-03-06T12:05:37.709Z,956.3700
2023-03-06T12:06:39.922Z,956.3700
2023-03-06T12:07:42.164Z,956.3300
2023-03-06T12:08:44.408Z,956.3700
2023-03-06T12:09:46.731Z,956.3300
2023-03-06T12:10:51.456Z,956.3700
2023-03-06T12:11:48.923Z,956.4100